Time;durP1;ratioP1;P1;durP2;ratioP2;P2;SDS_P1;SDS_P2;PMS_P1;PMS_P2;Temp;Humidity;BMP_temperature;BMP_pressure;BME280_temperature;BME280_humidity;BME280_pressure;Samples;Min_cycle;Max_cycle;Signal;HPM_P1;HPM_P2
2021/07/26 00:00:23;;;;;;;15.90;12.73;;;;;;;28.78;45.61;99227.78;4468326;32;33760;-62
2021/07/26 00:02:51;;;;;;;17.55;11.90;;;;;;;28.77;45.68;99239.00;4468583;32;34314;-63
2021/07/26 00:05:18;;;;;;;16.42;12.70;;;;;;;28.78;45.47;99232.44;4468547;32;33869;-63
2021/07/26 00:07:46;;;;;;;17.90;13.05;;;;;;;28.78;45.58;99226.94;4468357;32;33348;-62
2021/07/26 00:10:13;;;;;;;14.30;12.35;;;;;;;28.78;45.59;99236.00;4465438;32;95417;-62
2021/07/26 00:12:41;;;;;;;14.60;12.85;;;;;;;28.77;45.68;99226.09;4468497;32;34086;-62
2021/07/26 00:15:09;;;;;;;14.93;12.63;;;;;;;28.77;45.78;99226.09;4468668;32;33877;-63
2021/07/26 00:17:37;;;;;;;15.00;13.32;;;;;;;28.77;45.77;99230.78;4475279;32;33496;-61
2021/07/26 00:20:05;;;;;;;15.82;13.43;;;;;;;28.76;45.67;99232.69;4469991;32;34731;-63
2021/07/26 00:22:32;;;;;;;16.00;13.48;;;;;;;28.76;46.02;99231.87;4483889;32;34553;-64
2021/07/26 00:25:00;;;;;;;16.20;13.30;;;;;;;28.75;45.77;99230.25;4483879;32;33979;-62
2021/07/26 00:27:27;;;;;;;15.80;14.10;;;;;;;28.73;46.21;99223.09;4484216;32;33099;-64
2021/07/26 00:29:57;;;;;;;;;;;;;;;28.73;46.39;99227.78;4484155;32;34931;-62
2021/07/26 00:32:28;;;;;;;18.83;14.20;;;;;;;28.85;46.03;99224.72;4467754;32;34444;-62
2021/07/26 00:35:04;;;;;;;17.98;13.35;;;;;;;28.76;46.17;99218.16;4467848;32;35068;-62
2021/07/26 00:37:31;;;;;;;16.92;13.93;;;;;;;28.73;46.13;99222.28;4468225;32;34603;-61
2021/07/26 00:40:05;;;;;;;16.20;13.82;;;;;;;28.72;46.14;99218.72;4468067;32;34048;-61
2021/07/26 00:42:33;;;;;;;16.65;13.95;;;;;;;28.73;46.11;99234.09;4479397;32;35222;-61
2021/07/26 00:45:00;;;;;;;22.60;14.52;;;;;;;28.71;46.18;99211.56;4483568;32;33502;-62
2021/07/26 00:47:28;;;;;;;15.73;14.07;;;;;;;28.71;46.22;99228.03;4482763;32;34521;-62
2021/07/26 00:49:56;;;;;;;16.15;13.88;;;;;;;28.72;46.31;99223.37;4483584;32;33611;-62
2021/07/26 00:52:24;;;;;;;16.00;13.80;;;;;;;28.72;46.25;99218.72;4483422;32;34001;-62
2021/07/26 00:54:52;;;;;;;17.20;14.07;;;;;;;28.72;46.09;99226.97;4482064;32;34806;-63
2021/07/26 00:57:20;;;;;;;16.27;14.57;;;;;;;28.73;46.04;99228.59;4483454;32;33878;-62
2021/07/26 00:59:49;;;;;;;17.85;13.70;;;;;;;28.75;45.85;99227.50;4482132;32;34230;-62
2021/07/26 01:02:16;;;;;;;16.50;14.80;;;;;;;28.73;45.96;99230.53;4481947;32;34854;-62
2021/07/26 01:04:44;;;;;;;16.60;14.15;;;;;;;28.71;46.31;99239.00;4482963;32;34001;-61
2021/07/26 01:07:11;;;;;;;15.82;14.18;;;;;;;28.71;46.37;99241.75;4485461;32;33480;-62
2021/07/26 01:09:39;;;;;;;17.37;14.38;;;;;;;28.69;46.48;99230.25;4484009;32;33988;-62
2021/07/26 01:12:07;;;;;;;18.62;15.43;;;;;;;28.68;46.69;99239.59;4470766;32;33514;-62
2021/07/26 01:14:34;;;;;;;16.23;14.52;;;;;;;28.68;46.54;99236.03;4484174;32;34512;-62
2021/07/26 01:17:03;;;;;;;15.55;13.98;;;;;;;28.69;46.28;99240.41;4480442;32;33118;-62
2021/07/26 01:19:30;;;;;;;16.92;15.07;;;;;;;28.69;46.25;99251.38;4469654;32;35550;-63
2021/07/26 01:21:58;;;;;;;16.05;14.35;;;;;;;28.68;46.58;99245.06;4470029;32;33949;-62
2021/07/26 01:24:25;;;;;;;17.48;14.70;;;;;;;28.68;46.24;99242.34;4469515;32;34851;-63
2021/07/26 01:26:53;;;;;;;17.65;15.43;;;;;;;28.67;46.27;99243.41;4469586;32;33757;-64
2021/07/26 01:29:22;;;;;;;16.08;14.48;;;;;;;28.67;46.51;99245.34;4469545;32;34818;-62
2021/07/26 01:31:49;;;;;;;15.70;14.07;;;;;;;28.68;46.18;99245.06;4469410;32;34854;-62
2021/07/26 01:34:17;;;;;;;18.17;14.45;;;;;;;28.71;45.98;99250.00;4469580;32;33936;-63
2021/07/26 01:36:44;;;;;;;16.08;14.38;;;;;;;28.69;46.08;99248.63;4469568;32;33469;-63
2021/07/26 01:39:12;;;;;;;19.67;14.50;;;;;;;28.68;46.25;99247.81;4469840;32;34600;-62
2021/07/26 01:41:39;;;;;;;17.98;15.82;;;;;;;28.69;46.05;99243.97;4469477;32;33970;-62
2021/07/26 01:44:10;;;;;;;19.45;15.38;;;;;;;28.69;46.29;99245.91;4472724;32;34624;-64
2021/07/26 01:47:01;;;;;;;20.88;15.25;;;;;;;28.70;46.36;99247.53;4485006;32;34259;-63
2021/07/26 01:49:47;;;;;;;18.73;15.32;;;;;;;28.71;46.24;99236.28;4471148;32;34000;-64
2021/07/26 01:52:17;;;;;;;16.48;14.87;;;;;;;28.68;46.31;99239.59;4484950;32;34049;-62
2021/07/26 01:54:44;;;;;;;17.40;15.55;;;;;;;28.66;46.41;99232.72;4485118;32;34334;-63
2021/07/26 01:57:12;;;;;;;17.10;15.27;;;;;;;28.68;46.30;99238.75;4484255;32;32720;-62
2021/07/26 01:59:40;;;;;;;18.25;15.88;;;;;;;28.67;46.35;99245.34;4485347;32;34707;-63
2021/07/26 02:02:07;;;;;;;16.92;15.13;;;;;;;28.67;46.40;99245.34;4485057;32;34813;-63
2021/07/26 02:04:35;;;;;;;17.00;15.13;;;;;;;28.67;46.35;99243.41;4484986;32;33460;-62
2021/07/26 02:07:06;;;;;;;18.58;16.27;;;;;;;28.68;46.30;99256.06;4485256;32;34189;-63
2021/07/26 02:09:34;;;;;;;17.05;15.25;;;;;;;28.68;46.52;99255.25;4470821;32;33892;-62
2021/07/26 02:12:03;;;;;;;17.73;15.82;;;;;;;28.65;46.73;99266.75;4484751;32;34304;-62
2021/07/26 02:14:30;;;;;;;17.48;15.77;;;;;;;28.65;46.67;99258.53;4483008;32;34809;-62
2021/07/26 02:16:57;;;;;;;16.67;14.95;;;;;;;28.65;46.55;99253.84;4481292;32;33873;-62
2021/07/26 02:19:25;;;;;;;17.42;15.48;;;;;;;28.66;46.56;99250.00;4469461;32;34567;-64
2021/07/26 02:21:53;;;;;;;18.87;15.60;;;;;;;28.65;46.52;99244.78;4469255;32;33603;-62
2021/07/26 02:24:20;;;;;;;18.33;15.43;;;;;;;28.65;46.44;99237.38;4469284;32;34813;-63
2021/07/26 02:26:48;;;;;;;17.17;14.65;;;;;;;28.66;46.54;99229.97;4469234;32;34260;-63
2021/07/26 02:29:15;;;;;;;18.77;16.05;;;;;;;28.65;46.54;99223.66;4469662;32;34825;-63
2021/07/26 02:31:43;;;;;;;16.52;14.82;;;;;;;28.64;46.63;99229.44;4468962;32;34081;-63
2021/07/26 02:34:10;;;;;;;18.00;15.45;;;;;;;28.63;46.68;99223.13;4469230;32;33967;-62
2021/07/26 02:36:38;;;;;;;16.90;15.30;;;;;;;28.64;46.63;99235.75;4469155;32;34325;-63
2021/07/26 02:39:05;;;;;;;17.30;15.60;;;;;;;28.64;46.76;99237.66;4468969;32;35015;-63
2021/07/26 02:41:33;;;;;;;17.70;15.88;;;;;;;28.63;46.63;99236.84;4469009;32;34086;-62
2021/07/26 02:44:00;;;;;;;17.83;15.98;;;;;;;28.63;46.58;99236.84;4469132;32;33837;-64
2021/07/26 02:46:28;;;;;;;20.60;15.68;;;;;;;28.65;46.62;99242.06;4469081;32;33564;-62
2021/07/26 02:48:56;;;;;;;17.35;15.55;;;;;;;28.64;46.54;99249.47;4469068;32;33872;-63
2021/07/26 02:51:23;;;;;;;20.85;16.20;;;;;;;28.64;46.52;99243.16;4469004;32;34338;-63
2021/07/26 02:53:50;;;;;;;17.23;15.25;;;;;;;28.64;46.56;99249.47;4468773;32;35046;-62
2021/07/26 02:56:31;;;;;;;18.23;16.15;;;;;;;28.64;46.54;99249.47;4469083;32;33588;-62
2021/07/26 02:58:58;;;;;;;18.50;16.05;;;;;;;28.64;46.59;99254.94;4468938;32;34684;-62
2021/07/26 03:01:26;;;;;;;17.80;15.98;;;;;;;28.62;46.83;99262.63;4467639;32;34105;-62
2021/07/26 03:03:54;;;;;;;17.33;15.38;;;;;;;28.62;46.78;99253.56;4468929;32;34080;-62
2021/07/26 03:06:23;;;;;;;17.52;15.75;;;;;;;28.62;46.75;99246.16;4468947;32;33730;-62
2021/07/26 03:08:52;;;;;;;18.60;16.60;;;;;;;28.63;46.66;99256.06;4481268;31;34039;-62
2021/07/26 03:11:19;;;;;;;17.27;15.32;;;;;;;28.63;46.56;99258.81;4487948;31;33928;-62
2021/07/26 03:13:47;;;;;;;17.87;15.98;;;;;;;28.61;46.68;99260.16;4500146;31;33791;-62
2021/07/26 03:16:15;;;;;;;19.17;16.30;;;;;;;28.62;46.59;99262.63;4500310;31;33877;-62
2021/07/26 03:18:43;;;;;;;18.77;16.87;;;;;;;28.60;46.81;99262.09;4485941;31;34086;-62
2021/07/26 03:21:14;;;;;;;18.23;16.35;;;;;;;28.61;46.82;99260.16;4484366;32;34050;-62
2021/07/26 03:23:42;;;;;;;18.67;16.87;;;;;;;28.60;46.68;99262.09;4484473;32;33864;-64
2021/07/26 03:26:09;;;;;;;18.08;16.33;;;;;;;28.60;46.69;99267.56;4470321;32;33546;-62
2021/07/26 03:28:37;;;;;;;18.30;16.40;;;;;;;28.60;46.64;99258.53;4482904;32;34683;-63
2021/07/26 03:31:04;;;;;;;18.65;16.70;;;;;;;28.62;46.61;99261.81;4470319;32;33646;-61
2021/07/26 03:33:32;;;;;;;19.20;17.37;;;;;;;28.61;46.55;99258.22;4484451;32;33993;-62
2021/07/26 03:35:59;;;;;;;18.52;16.65;;;;;;;28.60;46.62;99256.59;4484248;32;33778;-62
2021/07/26 03:38:27;;;;;;;20.27;16.55;;;;;;;28.60;46.56;99256.59;4484336;32;33976;-62
2021/07/26 03:40:55;;;;;;;17.55;15.43;;;;;;;28.60;46.60;99259.34;4457098;32;32664;-62
2021/07/26 03:43:22;;;;;;;19.35;16.67;;;;;;;28.60;46.47;99259.34;4484241;32;34018;-63
2021/07/26 03:45:50;;;;;;;18.17;16.25;;;;;;;28.60;46.58;99264.84;4484437;32;33572;-63
2021/07/26 03:48:17;;;;;;;18.55;16.27;;;;;;;28.59;46.71;99271.44;4484244;32;34024;-62
2021/07/26 03:50:45;;;;;;;17.90;15.77;;;;;;;28.60;46.69;99266.75;4484104;32;34835;-62
2021/07/26 03:53:14;;;;;;;18.37;16.58;;;;;;;28.59;46.73;99274.16;4484074;32;34991;-62
2021/07/26 03:55:42;;;;;;;18.08;16.27;;;;;;;28.59;46.67;99296.12;4470429;32;33723;-63
2021/07/26 03:58:09;;;;;;;19.85;17.25;;;;;;;28.61;46.63;99291.19;4484048;32;35545;-62
2021/07/26 04:00:37;;;;;;;18.58;16.42;;;;;;;28.60;46.64;99280.47;4484165;32;34085;-62
2021/07/26 04:03:23;;;;;;;18.37;16.15;;;;;;;28.59;46.68;99279.66;4484144;32;34139;-62
2021/07/26 04:08:49;;;;;;;18.85;16.98;;;;;;;28.59;46.40;99282.41;4470775;32;34010;-62
2021/07/26 04:13:55;;;;;;;18.25;16.35;;;;;;;28.60;46.35;99278.56;4483826;32;34053;-62
2021/07/26 04:16:22;;;;;;;18.52;16.08;;;;;;;28.59;46.43;99290.63;4484112;32;34466;-62
2021/07/26 04:18:51;;;;;;;19.08;16.33;;;;;;;28.58;46.74;99294.47;4469205;32;34037;-64
2021/07/26 04:21:19;;;;;;;21.13;16.53;;;;;;;28.58;46.63;99296.38;4468193;32;33984;-62
2021/07/26 04:23:46;;;;;;;19.58;16.52;;;;;;;28.60;46.50;99300.50;4468294;32;33878;-62
2021/07/26 04:26:14;;;;;;;17.87;16.08;;;;;;;28.58;46.49;99293.63;4468517;32;33484;-63
2021/07/26 04:29:00;;;;;;;17.75;15.80;;;;;;;28.58;46.37;99299.13;4468166;32;35652;-62
2021/07/26 04:31:27;;;;;;;18.70;15.98;;;;;;;28.60;46.33;99296.94;4468132;32;33934;-62
2021/07/26 04:33:55;;;;;;;18.25;16.33;;;;;;;28.58;46.49;99297.19;4467871;32;34198;-63
2021/07/26 04:36:22;;;;;;;18.02;16.12;;;;;;;28.57;46.52;99295.56;4468352;32;33894;-63
2021/07/26 04:38:50;;;;;;;17.67;15.93;;;;;;;28.58;46.55;99310.09;4468142;32;34768;-62
2021/07/26 04:41:17;;;;;;;19.65;16.35;;;;;;;28.58;46.60;99302.69;4469393;32;33303;-63
2021/07/26 04:43:45;;;;;;;18.87;16.27;;;;;;;28.57;46.61;99303.78;4469820;32;34206;-63
2021/07/26 04:46:12;;;;;;;19.62;15.70;;;;;;;28.58;46.76;99310.09;4470030;32;33896;-62
2021/07/26 04:48:40;;;;;;;18.35;15.85;;;;;;;28.57;46.64;99306.53;4469735;32;35144;-62
2021/07/26 04:51:07;;;;;;;19.37;15.98;;;;;;;28.58;46.59;99305.44;4469811;32;33997;-63
2021/07/26 04:53:35;;;;;;;18.98;17.08;;;;;;;28.57;46.60;99309.28;4469691;32;35159;-62
2021/07/26 04:56:03;;;;;;;18.02;16.15;;;;;;;28.58;46.53;99316.41;4469737;32;33061;-62
2021/07/26 04:58:49;;;;;;;20.08;16.40;;;;;;;28.59;46.57;99317.25;4469855;32;34690;-64
2021/07/26 05:01:16;;;;;;;19.77;15.75;;;;;;;28.59;46.59;99311.78;4469655;32;33954;-62
2021/07/26 05:03:44;;;;;;;18.70;16.80;;;;;;;28.58;46.59;99321.91;4469762;32;34627;-64
2021/07/26 05:06:12;;;;;;;18.10;16.20;;;;;;;28.58;46.63;99321.91;4469688;32;34240;-64
2021/07/26 05:08:39;;;;;;;18.55;16.65;;;;;;;28.58;46.61;99326.56;4469429;32;34093;-61
2021/07/26 05:11:07;;;;;;;17.30;15.50;;;;;;;28.58;46.61;99335.63;4469853;32;34467;-64
2021/07/26 05:13:34;;;;;;;18.30;16.42;;;;;;;28.57;46.67;99331.25;4469652;32;33992;-61
2021/07/26 05:16:02;;;;;;;18.25;16.37;;;;;;;28.58;46.53;99337.56;4469523;32;33276;-64
2021/07/26 05:18:29;;;;;;;19.70;15.98;;;;;;;28.57;46.56;99342.22;4468214;32;33984;-63
2021/07/26 05:20:57;;;;;;;19.35;16.77;;;;;;;28.59;46.60;99339.22;4485210;32;34833;-63
2021/07/26 05:23:25;;;;;;;21.30;15.40;;;;;;;28.59;46.62;99339.22;4485145;32;34077;-63
2021/07/26 05:25:52;;;;;;;21.40;16.70;;;;;;;28.58;46.65;99340.28;4485267;32;33583;-62
2021/07/26 05:28:19;;;;;;;18.50;16.60;;;;;;;28.57;46.70;99342.22;4485259;32;34114;-63
2021/07/26 05:30:48;;;;;;;21.10;16.87;;;;;;;28.58;46.74;99346.59;4485344;32;35146;-62
2021/07/26 05:33:15;;;;;;;19.30;17.02;;;;;;;28.58;46.80;99349.34;4483458;32;32680;-62
2021/07/26 05:35:43;;;;;;;17.62;15.93;;;;;;;28.59;46.81;99363.94;4471023;32;33930;-62
2021/07/26 05:38:10;;;;;;;20.17;16.12;;;;;;;28.58;46.82;99349.34;4484987;32;35147;-62
2021/07/26 05:40:38;;;;;;;18.75;16.67;;;;;;;28.58;47.08;99359.50;4485203;32;34722;-62
2021/07/26 05:43:07;;;;;;;20.62;16.60;;;;;;;28.58;47.04;99351.28;4485523;32;33552;-62
2021/07/26 05:45:36;;;;;;;18.92;16.98;;;;;;;28.57;47.09;99364.19;4484962;32;34159;-62
2021/07/26 05:48:04;;;;;;;20.10;16.48;;;;;;;28.58;46.98;99373.25;4485127;32;34428;-62
2021/07/26 05:50:32;;;;;;;18.52;15.70;;;;;;;28.59;46.78;99386.72;4485314;32;35079;-62
2021/07/26 05:53:03;;;;;;;18.77;16.85;;;;;;;28.59;46.91;99374.91;4484289;32;33854;-61
2021/07/26 05:55:32;;;;;;;17.75;15.98;;;;;;;28.57;47.02;99377.09;4485153;32;33161;-62
2021/07/26 05:58:01;;;;;;;18.50;16.70;;;;;;;28.58;47.16;99382.28;4484886;32;33918;-62
2021/07/26 06:00:42;;;;;;;19.63;16.30;;;;;;;28.60;47.10;99393.03;4485069;32;33604;-61
2021/07/26 06:03:10;;;;;;;17.87;15.98;;;;;;;28.58;47.18;99386.97;4485075;32;33879;-61
2021/07/26 06:05:38;;;;;;;18.37;16.10;;;;;;;28.60;47.08;99382.03;4484959;32;33513;-62
2021/07/26 06:08:05;;;;;;;18.48;16.45;;;;;;;28.59;47.08;99381.22;4485281;32;33956;-61
2021/07/26 06:10:33;;;;;;;22.75;16.35;;;;;;;28.56;47.55;99375.44;4470684;32;34750;-63
2021/07/26 06:13:00;;;;;;;17.87;16.08;;;;;;;28.57;47.32;99377.91;4484868;32;34288;-62
2021/07/26 06:15:28;;;;;;;17.98;16.08;;;;;;;28.57;47.26;99383.37;4484909;32;34515;-63
2021/07/26 06:17:56;;;;;;;20.05;17.35;;;;;;;28.58;47.10;99381.47;4475986;32;35375;-62
2021/07/26 06:20:23;;;;;;;24.35;16.90;;;;;;;28.58;47.00;99381.47;4455210;32;33870;-62
2021/07/26 06:22:54;;;;;;;17.80;15.98;;;;;;;28.58;47.01;99376.81;4469211;32;34454;-62
2021/07/26 06:25:22;;;;;;;17.92;16.05;;;;;;;28.58;47.07;99370.50;4469031;32;33694;-62
2021/07/26 06:27:50;;;;;;;19.50;17.10;;;;;;;28.58;47.03;99371.31;4469129;32;33959;-63
2021/07/26 06:30:17;;;;;;;19.00;17.10;;;;;;;28.59;47.08;99377.66;4469188;32;35433;-63
2021/07/26 06:32:45;;;;;;;18.10;16.17;;;;;;;28.59;47.02;99375.72;4468830;32;33980;-62
2021/07/26 06:35:13;;;;;;;20.90;16.45;;;;;;;28.59;47.17;99378.47;4469209;32;34273;-62
2021/07/26 06:37:40;;;;;;;25.08;17.50;;;;;;;28.60;47.16;99380.12;4458337;32;32490;-62
2021/07/26 06:40:08;;;;;;;19.70;16.90;;;;;;;28.60;47.22;99390.28;4483795;32;33612;-64
2021/07/26 06:42:36;;;;;;;22.65;16.67;;;;;;;28.60;47.24;99384.78;4484601;32;33925;-62
2021/07/26 06:45:07;;;;;;;19.67;17.37;;;;;;;28.63;46.97;99382.34;4483399;32;33423;-64
2021/07/26 06:47:37;;;;;;;19.75;16.77;;;;;;;28.61;47.10;99381.75;4482215;32;34286;-63
2021/07/26 06:50:05;;;;;;;21.95;17.15;;;;;;;28.62;47.12;99388.06;4468993;32;34865;-63
2021/07/26 06:52:32;;;;;;;21.42;17.17;;;;;;;28.61;47.22;99380.94;4469003;32;33865;-63
2021/07/26 06:55:00;;;;;;;20.75;18.12;;;;;;;28.61;47.20;99384.50;4454624;32;33588;-62
2021/07/26 06:57:29;;;;;;;18.77;16.67;;;;;;;28.62;47.08;99390.81;4468959;32;34185;-63
2021/07/26 06:59:56;;;;;;;18.95;16.73;;;;;;;28.60;47.17;99393.84;4468897;32;34275;-63
2021/07/26 07:02:24;;;;;;;20.98;16.42;;;;;;;28.59;47.25;99394.94;4468529;32;34620;-65
2021/07/26 07:04:52;;;;;;;21.05;16.40;;;;;;;28.59;47.07;99397.69;4468851;32;33637;-65
2021/07/26 07:07:20;;;;;;;22.15;16.73;;;;;;;28.61;46.92;99406.47;4468971;32;33642;-66
2021/07/26 07:09:48;;;;;;;22.62;16.83;;;;;;;28.61;47.03;99403.72;4468696;32;34058;-63
2021/07/26 07:12:18;;;;;;;24.23;16.55;;;;;;;28.61;47.01;99400.97;4468631;32;34108;-65
2021/07/26 07:14:46;;;;;;;21.42;16.98;;;;;;;28.61;47.03;99395.47;4468661;32;33921;-65
2021/07/26 07:17:14;;;;;;;19.25;16.27;;;;;;;28.61;47.00;99400.97;4468758;32;34413;-63
2021/07/26 07:19:43;;;;;;;21.52;16.30;;;;;;;28.62;47.01;99402.62;4482303;32;34089;-66
2021/07/26 07:22:10;;;;;;;25.90;15.80;;;;;;;28.63;46.96;99407.03;4484503;32;33579;-65
2021/07/26 07:24:39;;;;;;;19.23;15.45;;;;;;;28.64;46.67;99405.94;4484567;32;33565;-65
2021/07/26 07:27:07;;;;;;;21.15;15.85;;;;;;;28.64;46.58;99405.13;4483032;32;33696;-65
2021/07/26 07:29:34;;;;;;;19.73;15.60;;;;;;;28.64;46.43;99410.59;4470134;32;34028;-65
2021/07/26 07:32:03;;;;;;;23.85;15.18;;;;;;;28.63;46.45;99412.53;4484535;32;34760;-65
2021/07/26 07:34:30;;;;;;;18.60;15.23;;;;;;;28.64;46.49;99418.84;4484439;32;33108;-65
2021/07/26 07:36:59;;;;;;;16.33;14.57;;;;;;;28.64;46.32;99416.91;4484493;32;33903;-65
2021/07/26 07:39:28;;;;;;;18.10;14.82;;;;;;;28.65;46.31;99423.22;4484399;32;34307;-66
2021/07/26 07:41:55;;;;;;;18.23;15.30;;;;;;;28.64;46.18;99416.91;4484333;32;34088;-65
2021/07/26 07:44:29;;;;;;;16.48;14.77;;;;;;;28.64;46.23;99414.16;4484185;32;33495;-64
2021/07/26 07:46:56;;;;;;;19.48;15.75;;;;;;;28.64;46.15;99408.69;4484246;32;34668;-65
2021/07/26 07:49:24;;;;;;;16.67;14.05;;;;;;;28.65;46.05;99413.06;4476536;32;33899;-63
2021/07/26 07:51:51;;;;;;;21.25;15.52;;;;;;;28.64;46.21;99414.16;4476974;32;34317;-63
2021/07/26 07:54:19;;;;;;;18.95;15.20;;;;;;;28.65;46.26;99413.06;4471459;32;33798;-63
2021/07/26 07:56:48;;;;;;;17.35;14.95;;;;;;;28.65;46.12;99424.03;4470760;32;34661;-63
2021/07/26 07:59:15;;;;;;;15.45;13.85;;;;;;;28.64;46.12;99410.59;4484005;32;34276;-64
2021/07/26 08:01:43;;;;;;;16.90;13.77;;;;;;;28.66;46.10;99419.38;4473616;32;34155;-63
2021/07/26 08:04:11;;;;;;;17.27;13.80;;;;;;;28.64;46.07;99425.16;4468877;32;33761;-62
2021/07/26 08:06:41;;;;;;;18.02;14.82;;;;;;;28.67;46.09;99419.09;4474906;32;34593;-62
2021/07/26 08:09:08;;;;;;;16.08;14.38;;;;;;;28.69;46.04;99427.09;4484135;32;34765;-62
2021/07/26 08:11:36;;;;;;;21.00;14.18;;;;;;;28.71;46.00;99428.44;4483490;32;34676;-62
2021/07/26 08:14:03;;;;;;;16.45;14.48;;;;;;;28.70;46.05;99425.97;4483377;32;33119;-62
2021/07/26 08:16:32;;;;;;;16.00;14.50;;;;;;;28.72;46.09;99429.25;4457677;32;34779;-62
2021/07/26 08:19:05;;;;;;;14.82;13.20;;;;;;;28.72;46.13;99424.63;4467657;32;35053;-61
2021/07/26 08:21:33;;;;;;;14.85;12.95;;;;;;;28.73;46.07;99423.53;4468053;32;34689;-62
2021/07/26 08:24:02;;;;;;;17.12;14.55;;;;;;;28.75;46.10;99431.47;4480162;32;33521;-62
2021/07/26 08:26:30;;;;;;;17.67;14.87;;;;;;;28.76;46.11;99435.03;4483537;32;33874;-62
2021/07/26 08:28:57;;;;;;;16.98;13.98;;;;;;;28.78;46.08;99439.19;4483512;32;34880;-62
2021/07/26 08:31:25;;;;;;;17.45;14.70;;;;;;;28.80;46.08;99433.41;4484109;32;34587;-62
2021/07/26 08:33:52;;;;;;;18.10;13.73;;;;;;;28.78;46.12;99441.94;4483442;32;34201;-62
2021/07/26 08:36:20;;;;;;;15.43;13.93;;;;;;;28.79;46.10;99448.25;4495699;31;32446;-62
2021/07/26 08:38:47;;;;;;;16.83;13.62;;;;;;;28.80;46.10;99453.47;4483422;32;34600;-62
2021/07/26 08:41:15;;;;;;;21.25;14.50;;;;;;;28.82;46.07;99448.53;4483377;32;34890;-62
2021/07/26 08:43:43;;;;;;;15.98;13.35;;;;;;;28.83;46.05;99454.84;4483418;32;33443;-62
2021/07/26 08:46:10;;;;;;;15.40;13.80;;;;;;;28.84;46.05;99453.75;4469050;32;34194;-62
2021/07/26 08:48:38;;;;;;;17.02;14.07;;;;;;;28.84;46.02;99457.31;4483292;32;34092;-62
2021/07/26 08:51:05;;;;;;;15.57;13.43;;;;;;;28.84;46.11;99456.50;4483101;32;34153;-62
2021/07/26 08:53:34;;;;;;;15.15;13.55;;;;;;;28.86;46.06;99457.03;4456411;32;33403;-63
2021/07/26 08:56:02;;;;;;;16.92;13.80;;;;;;;28.87;46.06;99453.22;4468517;32;34202;-62
2021/07/26 08:58:29;;;;;;;15.57;13.95;;;;;;;28.86;46.04;99455.09;4483311;32;34481;-62
2021/07/26 09:00:57;;;;;;;15.02;13.40;;;;;;;28.89;46.01;99464.75;4483059;32;34010;-62
2021/07/26 09:03:25;;;;;;;14.75;13.25;;;;;;;28.88;46.02;99461.19;4469010;32;34158;-62
2021/07/26 09:05:52;;;;;;;13.98;12.50;;;;;;;28.89;46.02;99459.25;4483086;32;34035;-62
2021/07/26 09:08:20;;;;;;;15.48;13.50;;;;;;;28.89;46.05;99462.81;4482228;32;33955;-63
2021/07/26 09:10:47;;;;;;;16.75;13.32;;;;;;;28.90;46.11;99460.91;4488764;31;33827;-61
2021/07/26 09:13:31;;;;;;;;;;;;;;;28.90;46.09;99456.22;4497078;31;32008;-63
2021/07/26 09:16:15;;;;;;;15.80;13.05;;;;;;;29.03;45.76;99459.59;4498676;31;34492;-64
2021/07/26 09:18:43;;;;;;;14.68;13.05;;;;;;;28.94;45.96;99462.00;4498379;31;34146;-62
2021/07/26 09:21:11;;;;;;;15.13;12.98;;;;;;;28.91;46.04;99466.13;4498567;31;34286;-62
2021/07/26 09:24:02;;;;;;;15.95;12.63;;;;;;;28.91;46.00;99457.91;4498561;31;34505;-62
2021/07/26 09:26:30;;;;;;;15.25;13.68;;;;;;;28.96;45.92;99454.38;4497403;31;33147;-62
2021/07/26 09:28:57;;;;;;;16.67;13.38;;;;;;;28.92;46.00;99454.03;4500706;31;34163;-62
2021/07/26 09:31:24;;;;;;;15.25;13.57;;;;;;;28.92;45.99;99462.28;4500757;31;33878;-62
2021/07/26 09:34:20;;;;;;;17.20;13.05;;;;;;;28.92;46.00;99459.53;4487586;31;34212;-62
2021/07/26 09:36:48;;;;;;;15.25;13.35;;;;;;;28.95;45.90;99466.44;4486228;31;34738;-62
2021/07/26 09:39:29;;;;;;;15.27;13.18;;;;;;;28.94;45.98;99464.75;4500559;31;33715;-62
2021/07/26 09:41:59;;;;;;;14.95;13.45;;;;;;;28.96;45.89;99466.19;4500851;31;34265;-62
2021/07/26 09:44:26;;;;;;;;;;;;;;;28.95;45.92;99460.94;4486715;31;34054;-62
2021/07/26 09:47:14;;;;;;;13.80;12.37;;;;;;;29.07;45.63;99467.00;4484344;32;34225;-63
2021/07/26 09:49:42;;;;;;;13.30;11.80;;;;;;;28.98;45.82;99463.97;4484740;32;34052;-62
2021/07/26 09:52:10;;;;;;;15.98;13.88;;;;;;;28.97;45.88;99461.50;4484395;32;34950;-62
2021/07/26 09:54:49;;;;;;;14.32;12.85;;;;;;;28.97;45.89;99458.75;4484759;32;33495;-62
2021/07/26 09:57:23;;;;;;;14.50;12.63;;;;;;;29.00;45.80;99460.13;4484693;32;33580;-62
2021/07/26 09:59:51;;;;;;;13.73;11.85;;;;;;;28.96;45.87;99448.88;4484364;32;34221;-62
2021/07/26 10:02:26;;;;;;;14.00;12.60;;;;;;;28.97;45.82;99453.25;4485047;32;34590;-62
2021/07/26 10:04:54;;;;;;;14.27;12.80;;;;;;;28.97;45.82;99450.53;4485061;32;34323;-63
2021/07/26 10:07:22;;;;;;;13.65;12.00;;;;;;;28.97;45.78;99445.03;4470934;32;34168;-63
2021/07/26 10:09:49;;;;;;;14.60;12.40;;;;;;;28.95;45.77;99439.78;4484713;32;34258;-63
2021/07/26 10:12:20;;;;;;;13.68;12.20;;;;;;;28.95;45.77;99441.72;4484995;32;33955;-63
2021/07/26 10:14:50;;;;;;;13.10;11.80;;;;;;;28.94;45.73;99446.34;4470827;32;33258;-62
2021/07/26 10:17:18;;;;;;;13.15;11.85;;;;;;;28.94;45.70;99443.59;4485023;32;34105;-62
2021/07/26 10:19:46;;;;;;;13.30;11.90;;;;;;;28.94;45.66;99445.53;4485179;32;34852;-63
2021/07/26 10:22:15;;;;;;;14.38;12.32;;;;;;;28.95;45.64;99447.19;4484727;32;33617;-62
2021/07/26 10:24:47;;;;;;;14.77;12.68;;;;;;;28.95;45.62;99442.53;4469939;32;33523;-65
2021/07/26 10:27:18;;;;;;;15.05;11.70;;;;;;;28.96;45.64;99444.19;4470775;32;33706;-62
2021/07/26 10:29:56;;;;;;;13.77;12.23;;;;;;;28.96;45.65;99446.94;4470607;32;34993;-62
2021/07/26 10:32:29;;;;;;;13.52;12.15;;;;;;;28.99;45.62;99453.81;4484737;32;34265;-63
2021/07/26 10:34:57;;;;;;;12.93;11.63;;;;;;;28.98;45.64;99444.75;4484952;32;34452;-63
2021/07/26 10:37:51;;;;;;;13.10;11.20;;;;;;;28.94;45.74;99449.09;4457079;32;33987;-63
2021/07/26 10:40:22;;;;;;;13.15;11.82;;;;;;;29.01;45.67;99454.38;4482420;32;34973;-63
2021/07/26 10:42:51;;;;;;;13.30;11.35;;;;;;;28.96;45.71;99460.69;4481341;32;34204;-63
2021/07/26 10:45:53;;;;;;;13.82;11.60;;;;;;;28.95;45.71;99463.69;4469072;32;33483;-63
2021/07/26 10:48:24;;;;;;;14.20;11.75;;;;;;;28.99;45.64;99464.78;4464871;32;34132;-63
2021/07/26 10:50:52;;;;;;;13.73;12.27;;;;;;;28.94;45.67;99457.34;4468991;32;34031;-63
2021/07/26 10:53:46;;;;;;;13.20;11.38;;;;;;;28.94;45.64;99453.75;4468909;32;34165;-63
2021/07/26 10:56:15;;;;;;;13.23;11.82;;;;;;;28.97;45.49;99448.59;4462451;32;33612;-63
2021/07/26 10:58:45;;;;;;;13.25;11.63;;;;;;;28.95;45.54;99458.19;4458070;32;34656;-63
2021/07/26 11:01:19;;;;;;;13.27;11.88;;;;;;;28.93;45.57;99461.19;4484448;32;33968;-63
2021/07/26 11:03:47;;;;;;;13.88;12.43;;;;;;;28.93;45.57;99446.63;4484602;32;33841;-63
2021/07/26 11:06:33;;;;;;;13.65;11.82;;;;;;;28.93;45.61;99449.38;4484647;32;33267;-63
2021/07/26 11:09:32;;;;;;;14.77;11.77;;;;;;;28.95;45.54;99441.72;4484638;32;34040;-63
2021/07/26 11:12:00;;;;;;;14.70;11.70;;;;;;;28.95;45.54;99447.19;4484444;32;34517;-63
2021/07/26 11:14:29;;;;;;;12.70;11.40;;;;;;;28.92;45.57;99445.00;4484276;32;33929;-63
2021/07/26 11:17:02;;;;;;;12.80;11.50;;;;;;;28.91;45.58;99444.16;4470169;32;33590;-63
2021/07/26 11:19:51;;;;;;;14.35;12.20;;;;;;;28.90;45.59;99438.91;4470712;32;34039;-63
2021/07/26 11:22:21;;;;;;;14.73;12.47;;;;;;;28.92;45.54;99440.31;4484351;32;34247;-63
2021/07/26 11:24:55;;;;;;;13.30;11.88;;;;;;;28.90;45.52;99441.66;4482790;31;34862;-63
2021/07/26 11:27:22;;;;;;;13.02;11.43;;;;;;;28.89;45.52;99429.03;4484194;32;34530;-63
2021/07/26 11:29:51;;;;;;;12.32;11.00;;;;;;;28.89;45.45;99434.53;4484254;32;33972;-63
2021/07/26 11:32:25;;;;;;;15.55;11.63;;;;;;;28.88;45.52;99436.47;4484385;32;34652;-63